sensor_id;sensor_type;location;lat;lon;timestamp;pressure;altitude;pressure_sealevel;temperature
14851;BMP180;7517;48.400;11.770;2022-10-26T00:01:07;96607.00;;;14.60
14851;BMP180;7517;48.400;11.770;2022-10-26T00:03:36;96603.00;;;14.60
14851;BMP180;7517;48.400;11.770;2022-10-26T00:06:09;96595.00;;;14.70
14851;BMP180;7517;48.400;11.770;2022-10-26T00:08:36;96581.00;;;14.70
14851;BMP180;7517;48.400;11.770;2022-10-26T00:11:05;96581.00;;;14.70
14851;BMP180;7517;48.400;11.770;2022-10-26T00:13:33;96589.00;;;14.70
14851;BMP180;7517;48.400;11.770;2022-10-26T00:16:01;96601.00;;;14.80
14851;BMP180;7517;48.400;11.770;2022-10-26T00:18:33;96591.00;;;14.80
14851;BMP180;7517;48.400;11.770;2022-10-26T00:21:02;96596.00;;;14.80
14851;BMP180;7517;48.400;11.770;2022-10-26T00:23:31;96600.00;;;14.90
14851;BMP180;7517;48.400;11.770;2022-10-26T00:25:58;96595.00;;;14.90
14851;BMP180;7517;48.400;11.770;2022-10-26T00:28:26;96595.00;;;14.90
14851;BMP180;7517;48.400;11.770;2022-10-26T00:30:53;96604.00;;;14.90
14851;BMP180;7517;48.400;11.770;2022-10-26T00:33:20;96610.00;;;15.00
14851;BMP180;7517;48.400;11.770;2022-10-26T00:35:51;96611.00;;;15.00
14851;BMP180;7517;48.400;11.770;2022-10-26T00:38:19;96603.00;;;15.00
14851;BMP180;7517;48.400;11.770;2022-10-26T00:40:48;96596.00;;;15.10
14851;BMP180;7517;48.400;11.770;2022-10-26T00:43:34;96588.00;;;15.10
14851;BMP180;7517;48.400;11.770;2022-10-26T00:46:10;96589.00;;;15.10
14851;BMP180;7517;48.400;11.770;2022-10-26T00:48:43;96587.00;;;15.10
14851;BMP180;7517;48.400;11.770;2022-10-26T00:51:21;96586.00;;;15.20
14851;BMP180;7517;48.400;11.770;2022-10-26T00:53:50;96599.00;;;15.20
14851;BMP180;7517;48.400;11.770;2022-10-26T00:56:19;96590.00;;;15.20
14851;BMP180;7517;48.400;11.770;2022-10-26T00:58:47;96591.00;;;15.20
14851;BMP180;7517;48.400;11.770;2022-10-26T01:01:15;96584.00;;;15.30
14851;BMP180;7517;48.400;11.770;2022-10-26T01:03:42;96568.00;;;15.30
14851;BMP180;7517;48.400;11.770;2022-10-26T01:06:11;96568.00;;;15.30
14851;BMP180;7517;48.400;11.770;2022-10-26T01:08:42;96565.00;;;15.40
14851;BMP180;7517;48.400;11.770;2022-10-26T01:11:11;96558.00;;;15.40
14851;BMP180;7517;48.400;11.770;2022-10-26T01:13:43;96549.00;;;15.40
14851;BMP180;7517;48.400;11.770;2022-10-26T01:16:33;96552.00;;;15.40
14851;BMP180;7517;48.400;11.770;2022-10-26T01:19:51;96540.00;;;15.40
14851;BMP180;7517;48.400;11.770;2022-10-26T01:22:29;96540.00;;;15.50
14851;BMP180;7517;48.400;11.770;2022-10-26T01:25:08;96543.00;;;15.50
14851;BMP180;7517;48.400;11.770;2022-10-26T01:27:41;96546.00;;;15.50
14851;BMP180;7517;48.400;11.770;2022-10-26T01:30:26;96556.00;;;15.50
14851;BMP180;7517;48.400;11.770;2022-10-26T01:33:20;96568.00;;;15.60
14851;BMP180;7517;48.400;11.770;2022-10-26T01:36:02;96574.00;;;15.60
14851;BMP180;7517;48.400;11.770;2022-10-26T01:38:42;96571.00;;;15.60
14851;BMP180;7517;48.400;11.770;2022-10-26T01:41:19;96583.00;;;15.70
14851;BMP180;7517;48.400;11.770;2022-10-26T01:43:54;96576.00;;;15.70
14851;BMP180;7517;48.400;11.770;2022-10-26T01:46:26;96578.00;;;15.70
14851;BMP180;7517;48.400;11.770;2022-10-26T01:48:58;96578.00;;;15.70
14851;BMP180;7517;48.400;11.770;2022-10-26T01:51:29;96581.00;;;15.70
14851;BMP180;7517;48.400;11.770;2022-10-26T01:53:58;96581.00;;;15.80
14851;BMP180;7517;48.400;11.770;2022-10-26T01:56:29;96580.00;;;15.80
14851;BMP180;7517;48.400;11.770;2022-10-26T01:59:30;96578.00;;;15.80
14851;BMP180;7517;48.400;11.770;2022-10-26T02:02:37;96561.00;;;15.80
14851;BMP180;7517;48.400;11.770;2022-10-26T02:05:37;96559.00;;;15.80
14851;BMP180;7517;48.400;11.770;2022-10-26T02:08:26;96567.00;;;15.80
14851;BMP180;7517;48.400;11.770;2022-10-26T02:11:09;96555.00;;;15.80
14851;BMP180;7517;48.400;11.770;2022-10-26T02:13:43;96566.00;;;15.80
14851;BMP180;7517;48.400;11.770;2022-10-26T02:16:21;96572.00;;;15.80
14851;BMP180;7517;48.400;11.770;2022-10-26T02:19:00;96575.00;;;15.80
14851;BMP180;7517;48.400;11.770;2022-10-26T02:21:35;96580.00;;;15.80
14851;BMP180;7517;48.400;11.770;2022-10-26T02:24:07;96575.00;;;15.80
14851;BMP180;7517;48.400;11.770;2022-10-26T02:26:37;96571.00;;;15.80
14851;BMP180;7517;48.400;11.770;2022-10-26T02:29:10;96576.00;;;15.80
14851;BMP180;7517;48.400;11.770;2022-10-26T02:31:41;96574.00;;;15.80
14851;BMP180;7517;48.400;11.770;2022-10-26T02:34:15;96592.00;;;15.80
14851;BMP180;7517;48.400;11.770;2022-10-26T02:36:47;96597.00;;;15.80
14851;BMP180;7517;48.400;11.770;2022-10-26T02:39:17;96589.00;;;15.80
14851;BMP180;7517;48.400;11.770;2022-10-26T02:41:47;96583.00;;;15.80
14851;BMP180;7517;48.400;11.770;2022-10-26T02:44:22;96582.00;;;15.80
14851;BMP180;7517;48.400;11.770;2022-10-26T02:46:51;96577.00;;;15.80
14851;BMP180;7517;48.400;11.770;2022-10-26T02:49:20;96561.00;;;15.80
14851;BMP180;7517;48.400;11.770;2022-10-26T02:51:53;96549.00;;;15.90
14851;BMP180;7517;48.400;11.770;2022-10-26T02:54:31;96563.00;;;15.90
14851;BMP180;7517;48.400;11.770;2022-10-26T02:57:02;96572.00;;;15.90
14851;BMP180;7517;48.400;11.770;2022-10-26T02:59:35;96562.00;;;15.90
14851;BMP180;7517;48.400;11.770;2022-10-26T03:02:04;96557.00;;;15.90
14851;BMP180;7517;48.400;11.770;2022-10-26T03:04:34;96559.00;;;15.90
14851;BMP180;7517;48.400;11.770;2022-10-26T03:07:01;96563.00;;;15.90
14851;BMP180;7517;48.400;11.770;2022-10-26T03:09:28;96562.00;;;15.90
14851;BMP180;7517;48.400;11.770;2022-10-26T03:11:55;96580.00;;;15.90
14851;BMP180;7517;48.400;11.770;2022-10-26T03:14:25;96577.00;;;15.90
14851;BMP180;7517;48.400;11.770;2022-10-26T03:16:52;96573.00;;;15.90
14851;BMP180;7517;48.400;11.770;2022-10-26T03:19:19;96578.00;;;15.90
14851;BMP180;7517;48.400;11.770;2022-10-26T03:21:47;96562.00;;;15.90
14851;BMP180;7517;48.400;11.770;2022-10-26T03:24:14;96576.00;;;16.00
14851;BMP180;7517;48.400;11.770;2022-10-26T03:26:41;96564.00;;;16.00
14851;BMP180;7517;48.400;11.770;2022-10-26T03:29:09;96560.00;;;16.00
14851;BMP180;7517;48.400;11.770;2022-10-26T03:31:36;96583.00;;;16.00
14851;BMP180;7517;48.400;11.770;2022-10-26T03:34:03;96576.00;;;15.90
14851;BMP180;7517;48.400;11.770;2022-10-26T03:36:30;96575.00;;;16.00
14851;BMP180;7517;48.400;11.770;2022-10-26T03:38:59;96582.00;;;16.00
14851;BMP180;7517;48.400;11.770;2022-10-26T03:41:26;96555.00;;;16.00
14851;BMP180;7517;48.400;11.770;2022-10-26T03:43:53;96559.00;;;16.00
14851;BMP180;7517;48.400;11.770;2022-10-26T03:46:20;96558.00;;;16.00
14851;BMP180;7517;48.400;11.770;2022-10-26T03:48:47;96555.00;;;16.00
14851;BMP180;7517;48.400;11.770;2022-10-26T03:51:14;96542.00;;;16.00
14851;BMP180;7517;48.400;11.770;2022-10-26T03:53:41;96537.00;;;16.00
14851;BMP180;7517;48.400;11.770;2022-10-26T03:56:10;96539.00;;;16.00
14851;BMP180;7517;48.400;11.770;2022-10-26T03:58:37;96536.00;;;16.00
14851;BMP180;7517;48.400;11.770;2022-10-26T04:01:04;96544.00;;;16.00
14851;BMP180;7517;48.400;11.770;2022-10-26T04:03:31;96545.00;;;16.00
14851;BMP180;7517;48.400;11.770;2022-10-26T04:06:00;96551.00;;;16.00
14851;BMP180;7517;48.400;11.770;2022-10-26T04:08:27;96560.00;;;16.00
14851;BMP180;7517;48.400;11.770;2022-10-26T04:10:54;96565.00;;;16.00
14851;BMP180;7517;48.400;11.770;2022-10-26T04:13:23;96582.00;;;16.00
14851;BMP180;7517;48.400;11.770;2022-10-26T04:15:50;96567.00;;;16.00
14851;BMP180;7517;48.400;11.770;2022-10-26T04:18:17;96569.00;;;16.00
14851;BMP180;7517;48.400;11.770;2022-10-26T04:20:44;96568.00;;;16.00
14851;BMP180;7517;48.400;11.770;2022-10-26T04:23:14;96582.00;;;16.00
14851;BMP180;7517;48.400;11.770;2022-10-26T04:25:42;96587.00;;;16.00
14851;BMP180;7517;48.400;11.770;2022-10-26T04:28:11;96595.00;;;16.10
14851;BMP180;7517;48.400;11.770;2022-10-26T04:30:40;96597.00;;;16.10
14851;BMP180;7517;48.400;11.770;2022-10-26T04:33:07;96585.00;;;16.10
14851;BMP180;7517;48.400;11.770;2022-10-26T04:35:35;96578.00;;;16.10
14851;BMP180;7517;48.400;11.770;2022-10-26T04:38:05;96576.00;;;16.10
14851;BMP180;7517;48.400;11.770;2022-10-26T04:40:33;96583.00;;;16.10
14851;BMP180;7517;48.400;11.770;2022-10-26T04:43:00;96599.00;;;16.10
14851;BMP180;7517;48.400;11.770;2022-10-26T04:45:27;96597.00;;;16.10
14851;BMP180;7517;48.400;11.770;2022-10-26T04:48:02;96595.00;;;16.10
14851;BMP180;7517;48.400;11.770;2022-10-26T04:50:30;96593.00;;;16.10
14851;BMP180;7517;48.400;11.770;2022-10-26T04:52:57;96587.00;;;16.10
14851;BMP180;7517;48.400;11.770;2022-10-26T04:55:25;96583.00;;;16.20
14851;BMP180;7517;48.400;11.770;2022-10-26T04:57:52;96582.00;;;16.20
14851;BMP180;7517;48.400;11.770;2022-10-26T05:00:20;96571.00;;;16.20
14851;BMP180;7517;48.400;11.770;2022-10-26T05:02:47;96589.00;;;16.20
14851;BMP180;7517;48.400;11.770;2022-10-26T05:05:16;96593.00;;;16.20
14851;BMP180;7517;48.400;11.770;2022-10-26T05:07:43;96592.00;;;16.20
14851;BMP180;7517;48.400;11.770;2022-10-26T05:10:10;96592.00;;;16.20
14851;BMP180;7517;48.400;11.770;2022-10-26T05:12:37;96600.00;;;16.20
14851;BMP180;7517;48.400;11.770;2022-10-26T05:15:09;96593.00;;;16.20
14851;BMP180;7517;48.400;11.770;2022-10-26T05:17:39;96612.00;;;16.20
14851;BMP180;7517;48.400;11.770;2022-10-26T05:20:07;96639.00;;;16.20
14851;BMP180;7517;48.400;11.770;2022-10-26T05:22:42;96676.00;;;16.20
14851;BMP180;7517;48.400;11.770;2022-10-26T05:25:09;96716.00;;;16.30
14851;BMP180;7517;48.400;11.770;2022-10-26T05:27:42;96747.00;;;16.30
14851;BMP180;7517;48.400;11.770;2022-10-26T05:30:11;96732.00;;;16.30
14851;BMP180;7517;48.400;11.770;2022-10-26T05:32:54;96716.00;;;16.30
14851;BMP180;7517;48.400;11.770;2022-10-26T05:35:22;96723.00;;;16.20
14851;BMP180;7517;48.400;11.770;2022-10-26T05:37:52;96721.00;;;16.20
14851;BMP180;7517;48.400;11.770;2022-10-26T05:40:19;96722.00;;;16.30
14851;BMP180;7517;48.400;11.770;2022-10-26T05:42:47;96729.00;;;16.30
14851;BMP180;7517;48.400;11.770;2022-10-26T05:45:16;96722.00;;;16.30
14851;BMP180;7517;48.400;11.770;2022-10-26T05:47:44;96726.00;;;16.40
14851;BMP180;7517;48.400;11.770;2022-10-26T05:50:12;96732.00;;;16.40
14851;BMP180;7517;48.400;11.770;2022-10-26T05:52:41;96728.00;;;16.40
14851;BMP180;7517;48.400;11.770;2022-10-26T05:55:13;96728.00;;;16.40
14851;BMP180;7517;48.400;11.770;2022-10-26T05:57:42;96733.00;;;16.40
14851;BMP180;7517;48.400;11.770;2022-10-26T06:00:17;96731.00;;;16.40
14851;BMP180;7517;48.400;11.770;2022-10-26T06:03:06;96716.00;;;16.40
14851;BMP180;7517;48.400;11.770;2022-10-26T06:05:49;96735.00;;;16.40
14851;BMP180;7517;48.400;11.770;2022-10-26T06:08:22;96726.00;;;16.40
14851;BMP180;7517;48.400;11.770;2022-10-26T06:10:58;96739.00;;;16.40
14851;BMP180;7517;48.400;11.770;2022-10-26T06:13:28;96718.00;;;16.40
14851;BMP180;7517;48.400;11.770;2022-10-26T06:16:18;96721.00;;;16.40
14851;BMP180;7517;48.400;11.770;2022-10-26T06:19:01;96710.00;;;16.40
14851;BMP180;7517;48.400;11.770;2022-10-26T06:22:07;96705.00;;;16.40
14851;BMP180;7517;48.400;11.770;2022-10-26T06:24:50;96727.00;;;16.40
14851;BMP180;7517;48.400;11.770;2022-10-26T06:27:41;96725.00;;;16.40
14851;BMP180;7517;48.400;11.770;2022-10-26T06:30:11;96733.00;;;16.40
14851;BMP180;7517;48.400;11.770;2022-10-26T06:32:49;96742.00;;;16.40
14851;BMP180;7517;48.400;11.770;2022-10-26T06:35:33;96734.00;;;16.40
14851;BMP180;7517;48.400;11.770;2022-10-26T06:38:14;96726.00;;;16.40
14851;BMP180;7517;48.400;11.770;2022-10-26T06:40:50;96735.00;;;16.40
14851;BMP180;7517;48.400;11.770;2022-10-26T06:43:25;96730.00;;;16.40
14851;BMP180;7517;48.400;11.770;2022-10-26T06:46:03;96731.00;;;16.40
14851;BMP180;7517;48.400;11.770;2022-10-26T06:48:52;96740.00;;;16.40
14851;BMP180;7517;48.400;11.770;2022-10-26T06:51:24;96727.00;;;16.40
14851;BMP180;7517;48.400;11.770;2022-10-26T06:54:05;96729.00;;;16.50
14851;BMP180;7517;48.400;11.770;2022-10-26T06:56:35;96714.00;;;16.50
14851;BMP180;7517;48.400;11.770;2022-10-26T06:59:33;96718.00;;;16.50
14851;BMP180;7517;48.400;11.770;2022-10-26T07:02:01;96722.00;;;16.50
14851;BMP180;7517;48.400;11.770;2022-10-26T07:04:28;96730.00;;;16.60
14851;BMP180;7517;48.400;11.770;2022-10-26T07:06:58;96727.00;;;16.60
14851;BMP180;7517;48.400;11.770;2022-10-26T07:09:25;96723.00;;;16.60
14851;BMP180;7517;48.400;11.770;2022-10-26T07:12:03;96725.00;;;16.60
14851;BMP180;7517;48.400;11.770;2022-10-26T07:14:37;96727.00;;;16.60
14851;BMP180;7517;48.400;11.770;2022-10-26T07:17:06;96735.00;;;16.70
14851;BMP180;7517;48.400;11.770;2022-10-26T07:19:37;96732.00;;;16.70
14851;BMP180;7517;48.400;11.770;2022-10-26T07:22:05;96740.00;;;16.70
14851;BMP180;7517;48.400;11.770;2022-10-26T07:24:35;96741.00;;;16.70
14851;BMP180;7517;48.400;11.770;2022-10-26T07:27:02;96747.00;;;16.80
14851;BMP180;7517;48.400;11.770;2022-10-26T07:29:36;96751.00;;;16.80
14851;BMP180;7517;48.400;11.770;2022-10-26T07:32:10;96750.00;;;16.80
14851;BMP180;7517;48.400;11.770;2022-10-26T07:34:37;96751.00;;;16.90
14851;BMP180;7517;48.400;11.770;2022-10-26T07:37:16;96744.00;;;16.90
14851;BMP180;7517;48.400;11.770;2022-10-26T07:39:50;96753.00;;;16.90
14851;BMP180;7517;48.400;11.770;2022-10-26T07:42:24;96759.00;;;17.00
14851;BMP180;7517;48.400;11.770;2022-10-26T07:44:52;96758.00;;;17.00
14851;BMP180;7517;48.400;11.770;2022-10-26T07:47:27;96762.00;;;17.10
14851;BMP180;7517;48.400;11.770;2022-10-26T07:49:57;96757.00;;;17.10
14851;BMP180;7517;48.400;11.770;2022-10-26T07:52:26;96754.00;;;17.20
14851;BMP180;7517;48.400;11.770;2022-10-26T07:54:55;96759.00;;;17.20
14851;BMP180;7517;48.400;11.770;2022-10-26T07:57:49;96763.00;;;17.30
14851;BMP180;7517;48.400;11.770;2022-10-26T08:00:27;96757.00;;;17.30
14851;BMP180;7517;48.400;11.770;2022-10-26T08:02:56;96764.00;;;17.40
14851;BMP180;7517;48.400;11.770;2022-10-26T08:05:24;96754.00;;;17.50
14851;BMP180;7517;48.400;11.770;2022-10-26T08:07:51;96769.00;;;17.60
14851;BMP180;7517;48.400;11.770;2022-10-26T08:10:18;96763.00;;;17.70
14851;BMP180;7517;48.400;11.770;2022-10-26T08:12:45;96767.00;;;17.70
14851;BMP180;7517;48.400;11.770;2022-10-26T08:15:13;96757.00;;;17.80
14851;BMP180;7517;48.400;11.770;2022-10-26T08:17:42;96741.00;;;17.90
14851;BMP180;7517;48.400;11.770;2022-10-26T08:20:10;96743.00;;;17.90
14851;BMP180;7517;48.400;11.770;2022-10-26T08:22:37;96747.00;;;18.00
14851;BMP180;7517;48.400;11.770;2022-10-26T08:25:05;96753.00;;;18.00
14851;BMP180;7517;48.400;11.770;2022-10-26T08:27:32;96752.00;;;18.10
14851;BMP180;7517;48.400;11.770;2022-10-26T08:30:00;96756.00;;;18.10
14851;BMP180;7517;48.400;11.770;2022-10-26T08:32:33;96757.00;;;18.20
14851;BMP180;7517;48.400;11.770;2022-10-26T08:35:01;96769.00;;;18.30
14851;BMP180;7517;48.400;11.770;2022-10-26T08:37:31;96764.00;;;18.30
14851;BMP180;7517;48.400;11.770;2022-10-26T08:39:58;96761.00;;;18.40
14851;BMP180;7517;48.400;11.770;2022-10-26T08:42:36;96768.00;;;18.50
14851;BMP180;7517;48.400;11.770;2022-10-26T08:45:21;96770.00;;;18.50
14851;BMP180;7517;48.400;11.770;2022-10-26T08:47:58;96774.00;;;18.60
14851;BMP180;7517;48.400;11.770;2022-10-26T08:50:32;96774.00;;;18.60
14851;BMP180;7517;48.400;11.770;2022-10-26T08:53:17;96772.00;;;18.70
14851;BMP180;7517;48.400;11.770;2022-10-26T08:55:57;96767.00;;;18.80
14851;BMP180;7517;48.400;11.770;2022-10-26T08:58:37;96773.00;;;18.80
14851;BMP180;7517;48.400;11.770;2022-10-26T09:01:07;96774.00;;;18.90
14851;BMP180;7517;48.400;11.770;2022-10-26T09:03:41;96770.00;;;19.00
14851;BMP180;7517;48.400;11.770;2022-10-26T09:06:23;96778.00;;;19.00
14851;BMP180;7517;48.400;11.770;2022-10-26T09:09:03;96779.00;;;19.10
14851;BMP180;7517;48.400;11.770;2022-10-26T09:11:54;96787.00;;;19.20
14851;BMP180;7517;48.400;11.770;2022-10-26T09:14:42;96787.00;;;19.30
14851;BMP180;7517;48.400;11.770;2022-10-26T09:17:36;96784.00;;;19.40
14851;BMP180;7517;48.400;11.770;2022-10-26T09:20:39;96784.00;;;19.60
14851;BMP180;7517;48.400;11.770;2022-10-26T09:23:30;96770.00;;;19.80
14851;BMP180;7517;48.400;11.770;2022-10-26T09:26:08;96785.00;;;20.00
14851;BMP180;7517;48.400;11.770;2022-10-26T09:28:43;96783.00;;;20.20
14851;BMP180;7517;48.400;11.770;2022-10-26T09:31:19;96788.00;;;20.40
14851;BMP180;7517;48.400;11.770;2022-10-26T09:34:01;96794.00;;;20.60
14851;BMP180;7517;48.400;11.770;2022-10-26T09:36:43;96787.00;;;20.70
14851;BMP180;7517;48.400;11.770;2022-10-26T09:39:28;96791.00;;;20.80
14851;BMP180;7517;48.400;11.770;2022-10-26T09:42:02;96802.00;;;20.90
14851;BMP180;7517;48.400;11.770;2022-10-26T09:44:51;96790.00;;;20.90
14851;BMP180;7517;48.400;11.770;2022-10-26T09:47:36;96800.00;;;21.00
14851;BMP180;7517;48.400;11.770;2022-10-26T09:50:22;96806.00;;;21.00
14851;BMP180;7517;48.400;11.770;2022-10-26T09:52:57;96802.00;;;21.10
14851;BMP180;7517;48.400;11.770;2022-10-26T09:55:39;96810.00;;;21.10
14851;BMP180;7517;48.400;11.770;2022-10-26T09:58:22;96809.00;;;21.10
14851;BMP180;7517;48.400;11.770;2022-10-26T10:00:57;96815.00;;;21.20
14851;BMP180;7517;48.400;11.770;2022-10-26T10:03:32;96819.00;;;21.20
14851;BMP180;7517;48.400;11.770;2022-10-26T10:06:19;96821.00;;;21.20
14851;BMP180;7517;48.400;11.770;2022-10-26T10:09:05;96818.00;;;21.20
14851;BMP180;7517;48.400;11.770;2022-10-26T10:11:43;96815.00;;;21.30
14851;BMP180;7517;48.400;11.770;2022-10-26T10:14:15;96819.00;;;21.30
14851;BMP180;7517;48.400;11.770;2022-10-26T10:16:57;96820.00;;;21.30
14851;BMP180;7517;48.400;11.770;2022-10-26T10:19:30;96827.00;;;21.30
14851;BMP180;7517;48.400;11.770;2022-10-26T10:22:08;96826.00;;;21.30
14851;BMP180;7517;48.400;11.770;2022-10-26T10:24:51;96833.00;;;21.30
14851;BMP180;7517;48.400;11.770;2022-10-26T10:27:23;96832.00;;;21.20
14851;BMP180;7517;48.400;11.770;2022-10-26T10:30:19;96832.00;;;21.20
14851;BMP180;7517;48.400;11.770;2022-10-26T10:33:09;96836.00;;;21.20
14851;BMP180;7517;48.400;11.770;2022-10-26T10:35:48;96839.00;;;21.20
14851;BMP180;7517;48.400;11.770;2022-10-26T10:38:19;96833.00;;;21.20
14851;BMP180;7517;48.400;11.770;2022-10-26T10:40:52;96838.00;;;21.20
14851;BMP180;7517;48.400;11.770;2022-10-26T10:43:22;96844.00;;;21.20
14851;BMP180;7517;48.400;11.770;2022-10-26T10:45:53;96836.00;;;21.20
14851;BMP180;7517;48.400;11.770;2022-10-26T10:48:27;96841.00;;;21.30
14851;BMP180;7517;48.400;11.770;2022-10-26T10:50:59;96837.00;;;21.30
14851;BMP180;7517;48.400;11.770;2022-10-26T10:53:34;96852.00;;;21.40
14851;BMP180;7517;48.400;11.770;2022-10-26T10:56:25;96855.00;;;21.40
14851;BMP180;7517;48.400;11.770;2022-10-26T10:59:11;96854.00;;;21.50
14851;BMP180;7517;48.400;11.770;2022-10-26T11:01:48;96851.00;;;21.50
14851;BMP180;7517;48.400;11.770;2022-10-26T11:04:47;96853.00;;;21.50
14851;BMP180;7517;48.400;11.770;2022-10-26T11:07:19;96858.00;;;21.60
14851;BMP180;7517;48.400;11.770;2022-10-26T11:09:49;96863.00;;;21.70
14851;BMP180;7517;48.400;11.770;2022-10-26T11:12:26;96864.00;;;21.70
14851;BMP180;7517;48.400;11.770;2022-10-26T11:15:02;96858.00;;;21.80
14851;BMP180;7517;48.400;11.770;2022-10-26T11:17:47;96858.00;;;21.80
14851;BMP180;7517;48.400;11.770;2022-10-26T11:20:21;96859.00;;;21.90
14851;BMP180;7517;48.400;11.770;2022-10-26T11:23:03;96863.00;;;21.90
14851;BMP180;7517;48.400;11.770;2022-10-26T11:25:37;96864.00;;;22.00
14851;BMP180;7517;48.400;11.770;2022-10-26T11:28:24;96866.00;;;22.00
14851;BMP180;7517;48.400;11.770;2022-10-26T11:31:02;96866.00;;;22.00
14851;BMP180;7517;48.400;11.770;2022-10-26T11:33:39;96866.00;;;22.00
14851;BMP180;7517;48.400;11.770;2022-10-26T11:36:11;96863.00;;;22.00
14851;BMP180;7517;48.400;11.770;2022-10-26T11:38:48;96870.00;;;22.10
14851;BMP180;7517;48.400;11.770;2022-10-26T11:41:21;96874.00;;;22.10
14851;BMP180;7517;48.400;11.770;2022-10-26T11:43:55;96866.00;;;22.10
14851;BMP180;7517;48.400;11.770;2022-10-26T11:46:33;96873.00;;;22.10
14851;BMP180;7517;48.400;11.770;2022-10-26T11:49:10;96871.00;;;22.10
14851;BMP180;7517;48.400;11.770;2022-10-26T11:51:45;96881.00;;;22.00
14851;BMP180;7517;48.400;11.770;2022-10-26T11:54:31;96886.00;;;22.00
14851;BMP180;7517;48.400;11.770;2022-10-26T11:57:01;96885.00;;;22.00
14851;BMP180;7517;48.400;11.770;2022-10-26T11:59:36;96888.00;;;22.00
14851;BMP180;7517;48.400;11.770;2022-10-26T12:02:14;96881.00;;;22.00
14851;BMP180;7517;48.400;11.770;2022-10-26T12:04:44;96887.00;;;22.00
14851;BMP180;7517;48.400;11.770;2022-10-26T12:07:22;96885.00;;;22.00
14851;BMP180;7517;48.400;11.770;2022-10-26T12:09:51;96895.00;;;22.00
14851;BMP180;7517;48.400;11.770;2022-10-26T12:12:29;96892.00;;;22.00
14851;BMP180;7517;48.400;11.770;2022-10-26T12:15:12;96900.00;;;22.10
14851;BMP180;7517;48.400;11.770;2022-10-26T12:17:49;96893.00;;;22.10
14851;BMP180;7517;48.400;11.770;2022-10-26T12:21:02;96894.00;;;22.10
14851;BMP180;7517;48.400;11.770;2022-10-26T12:23:34;96897.00;;;22.10
14851;BMP180;7517;48.400;11.770;2022-10-26T12:26:38;96901.00;;;22.20
14851;BMP180;7517;48.400;11.770;2022-10-26T12:29:34;96901.00;;;22.20
14851;BMP180;7517;48.400;11.770;2022-10-26T12:35:44;96903.00;;;22.30
14851;BMP180;7517;48.400;11.770;2022-10-26T12:38:57;96905.00;;;22.40
14851;BMP180;7517;48.400;11.770;2022-10-26T12:41:26;96906.00;;;22.40
14851;BMP180;7517;48.400;11.770;2022-10-26T12:44:02;96921.00;;;22.40
14851;BMP180;7517;48.400;11.770;2022-10-26T12:46:49;96925.00;;;22.50
14851;BMP180;7517;48.400;11.770;2022-10-26T12:49:58;96920.00;;;22.50
14851;BMP180;7517;48.400;11.770;2022-10-26T12:52:47;96919.00;;;22.50
14851;BMP180;7517;48.400;11.770;2022-10-26T12:55:55;96931.00;;;22.50
14851;BMP180;7517;48.400;11.770;2022-10-26T12:59:05;96933.00;;;22.50
14851;BMP180;7517;48.400;11.770;2022-10-26T13:02:10;96931.00;;;22.50
14851;BMP180;7517;48.400;11.770;2022-10-26T13:05:25;96926.00;;;22.50
14851;BMP180;7517;48.400;11.770;2022-10-26T13:08:03;96932.00;;;22.50
14851;BMP180;7517;48.400;11.770;2022-10-26T13:10:33;96929.00;;;22.60
14851;BMP180;7517;48.400;11.770;2022-10-26T13:13:04;96930.00;;;22.60
14851;BMP180;7517;48.400;11.770;2022-10-26T13:15:37;96926.00;;;22.60
14851;BMP180;7517;48.400;11.770;2022-10-26T13:18:13;96931.00;;;22.60
14851;BMP180;7517;48.400;11.770;2022-10-26T13:20:53;96928.00;;;22.60
14851;BMP180;7517;48.400;11.770;2022-10-26T13:23:28;96926.00;;;22.70
14851;BMP180;7517;48.400;11.770;2022-10-26T13:26:16;96929.00;;;22.70
14851;BMP180;7517;48.400;11.770;2022-10-26T13:28:49;96934.00;;;22.80
14851;BMP180;7517;48.400;11.770;2022-10-26T13:31:54;96938.00;;;22.80
14851;BMP180;7517;48.400;11.770;2022-10-26T13:34:25;96938.00;;;22.90
14851;BMP180;7517;48.400;11.770;2022-10-26T13:37:04;96944.00;;;22.90
14851;BMP180;7517;48.400;11.770;2022-10-26T13:39:38;96938.00;;;22.90
14851;BMP180;7517;48.400;11.770;2022-10-26T13:42:13;96941.00;;;22.90
14851;BMP180;7517;48.400;11.770;2022-10-26T13:44:50;96944.00;;;22.90
14851;BMP180;7517;48.400;11.770;2022-10-26T13:47:28;96945.00;;;22.90
14851;BMP180;7517;48.400;11.770;2022-10-26T13:50:03;96946.00;;;22.90
14851;BMP180;7517;48.400;11.770;2022-10-26T13:52:35;96947.00;;;22.90
14851;BMP180;7517;48.400;11.770;2022-10-26T13:55:14;96945.00;;;22.90
14851;BMP180;7517;48.400;11.770;2022-10-26T13:57:59;96955.00;;;23.00
14851;BMP180;7517;48.400;11.770;2022-10-26T14:00:28;96946.00;;;23.00
14851;BMP180;7517;48.400;11.770;2022-10-26T14:02:55;96951.00;;;23.00
14851;BMP180;7517;48.400;11.770;2022-10-26T14:05:23;96952.00;;;23.00
14851;BMP180;7517;48.400;11.770;2022-10-26T14:07:54;96949.00;;;23.00
14851;BMP180;7517;48.400;11.770;2022-10-26T14:10:28;96964.00;;;23.00
14851;BMP180;7517;48.400;11.770;2022-10-26T14:12:56;96955.00;;;23.00
14851;BMP180;7517;48.400;11.770;2022-10-26T14:15:27;96946.00;;;23.00
14851;BMP180;7517;48.400;11.770;2022-10-26T14:17:58;96951.00;;;23.00
14851;BMP180;7517;48.400;11.770;2022-10-26T14:20:29;96956.00;;;23.00
14851;BMP180;7517;48.400;11.770;2022-10-26T14:22:56;96966.00;;;23.00
14851;BMP180;7517;48.400;11.770;2022-10-26T14:25:27;96970.00;;;23.10
14851;BMP180;7517;48.400;11.770;2022-10-26T14:27:56;96970.00;;;23.00
14851;BMP180;7517;48.400;11.770;2022-10-26T14:30:27;96967.00;;;23.00
14851;BMP180;7517;48.400;11.770;2022-10-26T14:32:55;96969.00;;;23.00
14851;BMP180;7517;48.400;11.770;2022-10-26T14:35:26;96978.00;;;23.00
14851;BMP180;7517;48.400;11.770;2022-10-26T14:37:57;96974.00;;;23.00
14851;BMP180;7517;48.400;11.770;2022-10-26T14:40:33;96981.00;;;23.00
14851;BMP180;7517;48.400;11.770;2022-10-26T14:43:04;96980.00;;;23.00
14851;BMP180;7517;48.400;11.770;2022-10-26T14:45:34;96986.00;;;23.00
14851;BMP180;7517;48.400;11.770;2022-10-26T14:48:04;96987.00;;;23.00
14851;BMP180;7517;48.400;11.770;2022-10-26T14:50:32;96986.00;;;23.00
14851;BMP180;7517;48.400;11.770;2022-10-26T14:53:10;96993.00;;;23.00
14851;BMP180;7517;48.400;11.770;2022-10-26T14:55:48;96991.00;;;23.00
14851;BMP180;7517;48.400;11.770;2022-10-26T14:58:21;97005.00;;;23.00